Platzwetter / Webcam

  • Aktuelles Bild
  • Verlauf
  • Verlauf
  • Verlauf
  • Verlauf
  • Verlauf
  • Verlauf
  • Verlauf
  • Verlauf
  • Verlauf
  • Verlauf
  • Verlauf
  • Verlauf
  • Verlauf
  • Verlauf
  • Verlauf
  • Verlauf
  • Verlauf

Flugwetter Linz

[Quelle: ADDS]
METAR
LOWL 241050Z 27006KT 1600 R26/P1500N FZBR FEW003 BKN005 M07/M08 Q1027 NOSIG =
TAF
LOWL 240515Z 2406/2506 33003KT 3000 FZBR OVC007 TXM06/2412Z TNM08/2406Z TEMPO 2406/2411 1400 FZBCFG OVC002 PROB30 TEMPO 2411/2418 5000 SCT007 TEMPO 2420/2506 1400 FZBCFG OVC002 =

Flugwetter Salzburg

[Quelle: ADDS]
METAR
LOWS 241050Z 32003KT 290V360 1200 R15/1300N R33/1100N FZBR VV003 M09/M10 Q1026 R15/490195 BECMG 1500 OVC005 =
TAF
LOWS 240515Z 2406/2506 VRB02KT 0200 FZFG VV002 TXM06/2412Z TNM13/2506Z TEMPO 2406/2409 15003KT 1500 FZBCFG SCT002 OVC005 BECMG 2409/2411 01004KT 6000 NSW SCT003 OVC006 TEMPO 2411/2416 SCT006 BKN010 BECMG 2416/2418 15003KT 4000 FZBR SCT002 OVC005 TEMPO 2418/2500 VRB01KT 1200 FZBCFG BKN002 TEMPO 2500/2506 0200 FZFG VV001 =

Fliegen lernen

Die Fliegerschule der WMW...

Termine & Events

Alle Termine anzeigen...

Aktuelles & News

+++ Aktuelle Spritpreise (03.01.2017): | Jet A-1 € 1,316 | Super Plus 98 ETBE € 1,370 | Avgas 100LL € 1,944 | +++